createdAt,value
2017-12-08T00:00:35.012Z,86.00
2017-12-08T00:03:02.851Z,85.90
2017-12-08T00:05:30.473Z,86.00
2017-12-08T00:07:58.846Z,85.20
2017-12-08T00:10:27.252Z,83.50
2017-12-08T00:12:55.663Z,83.50
2017-12-08T00:15:23.277Z,83.30
2017-12-08T00:17:51.803Z,83.50
2017-12-08T00:20:19.498Z,83.30
2017-12-08T00:22:47.589Z,82.40
2017-12-08T00:25:17.177Z,82.80
2017-12-08T00:27:44.800Z,82.70
2017-12-08T00:30:12.411Z,81.90
2017-12-08T00:32:40.827Z,82.40
2017-12-08T00:35:08.427Z,82.40
2017-12-08T00:37:36.039Z,84.80
2017-12-08T00:40:03.735Z,84.40
2017-12-08T00:42:31.399Z,85.40
2017-12-08T00:44:59.014Z,84.10
2017-12-08T00:47:26.639Z,85.50
2017-12-08T00:49:55.066Z,83.60
2017-12-08T00:52:22.688Z,83.60
2017-12-08T00:54:50.291Z,82.80
2017-12-08T00:57:17.945Z,84.30
2017-12-08T00:59:45.536Z,82.50
2017-12-08T01:02:13.311Z,81.80
2017-12-08T01:04:41.699Z,78.90
2017-12-08T01:07:10.083Z,78.00
2017-12-08T01:09:38.508Z,77.90
2017-12-08T01:12:06.122Z,77.90
2017-12-08T01:14:33.736Z,77.50
2017-12-08T01:17:01.372Z,77.00
2017-12-08T01:19:28.984Z,79.10
2017-12-08T01:21:57.403Z,77.40
2017-12-08T01:24:25.018Z,77.40
2017-12-08T01:26:53.407Z,74.80
2017-12-08T01:29:21.846Z,75.70
2017-12-08T01:31:49.450Z,75.60
2017-12-08T01:34:17.088Z,74.90
2017-12-08T01:36:44.772Z,75.30
2017-12-08T01:39:13.143Z,75.10
2017-12-08T01:41:41.514Z,71.60
2017-12-08T01:44:09.951Z,74.80
2017-12-08T01:46:37.575Z,74.60
2017-12-08T01:49:05.255Z,72.90
2017-12-08T01:51:32.898Z,72.90
2017-12-08T01:54:00.542Z,73.10
2017-12-08T01:56:28.962Z,73.40
2017-12-08T01:58:56.616Z,73.40
2017-12-08T02:01:24.264Z,73.40
2017-12-08T02:03:51.895Z,73.30
2017-12-08T02:06:20.351Z,73.60
2017-12-08T02:08:47.976Z,73.60
2017-12-08T02:11:15.619Z,74.70
2017-12-08T02:13:44.097Z,72.30
2017-12-08T02:16:11.753Z,72.10
2017-12-08T02:18:39.395Z,74.60
2017-12-08T02:21:07.862Z,69.20
2017-12-08T02:23:36.319Z,66.70
2017-12-08T02:26:04.023Z,66.70
2017-12-08T02:28:31.710Z,68.10
2017-12-08T02:30:59.362Z,68.20
2017-12-08T02:33:27.027Z,64.20
2017-12-08T02:35:55.427Z,63.10
2017-12-08T02:38:23.139Z,63.10
2017-12-08T02:40:50.754Z,62.40
2017-12-08T02:43:18.392Z,61.60
2017-12-08T02:45:46.083Z,60.70
2017-12-08T02:48:13.725Z,60.30
2017-12-08T02:50:41.482Z,61.90
2017-12-08T02:53:09.142Z,62.70
2017-12-08T02:55:36.744Z,64.80
2017-12-08T02:58:05.149Z,68.50
2017-12-08T03:00:32.783Z,68.50
2017-12-08T03:03:01.251Z,70.60
2017-12-08T03:05:28.870Z,70.60
2017-12-08T03:07:56.500Z,73.40
2017-12-08T03:10:24.195Z,76.20
2017-12-08T03:12:51.849Z,78.20
2017-12-08T03:15:19.544Z,79.20
2017-12-08T03:17:47.186Z,80.70
2017-12-08T03:20:14.933Z,82.60
2017-12-08T03:22:42.569Z,83.60
2017-12-08T03:25:10.194Z,84.30
2017-12-08T03:27:38.642Z,86.10
2017-12-08T03:30:06.261Z,86.10
2017-12-08T03:32:34.030Z,86.40
2017-12-08T03:35:01.679Z,86.70
2017-12-08T03:37:29.507Z,86.10
2017-12-08T03:39:57.263Z,73.00
2017-12-08T03:42:24.953Z,70.60
2017-12-08T03:44:53.407Z,74.00
2017-12-08T03:47:21.047Z,73.90
2017-12-08T03:49:48.676Z,75.00
2017-12-08T03:52:16.332Z,76.70
2017-12-08T03:54:43.985Z,81.40
2017-12-08T03:57:11.707Z,84.70
2017-12-08T03:59:39.340Z,88.20
2017-12-08T04:02:06.976Z,89.00
2017-12-08T04:04:35.239Z,89.60
2017-12-08T04:07:02.838Z,90.00
2017-12-08T04:09:30.542Z,90.00
2017-12-08T04:11:58.958Z,90.20
2017-12-08T04:14:26.575Z,90.20
2017-12-08T04:16:55.019Z,90.70
2017-12-08T04:19:22.643Z,90.60
2017-12-08T04:21:50.346Z,91.20
2017-12-08T04:24:17.959Z,91.70
2017-12-08T04:26:45.666Z,92.80
2017-12-08T04:29:13.338Z,93.50
2017-12-08T04:31:40.982Z,94.40
2017-12-08T04:34:08.745Z,95.10
2017-12-08T04:36:36.389Z,95.80
2017-12-08T04:39:04.083Z,96.30
2017-12-08T04:41:31.779Z,97.50
2017-12-08T04:43:59.392Z,98.70
2017-12-08T04:46:27.075Z,99.90
2017-12-08T04:48:55.467Z,99.90
2017-12-08T04:51:24.017Z,99.90
2017-12-08T04:53:51.659Z,99.90
2017-12-08T04:56:19.313Z,99.90
2017-12-08T04:58:46.985Z,99.90
2017-12-08T05:01:14.674Z,99.90
2017-12-08T05:03:42.331Z,99.90
2017-12-08T05:06:09.957Z,99.90
2017-12-08T05:08:37.649Z,99.90
2017-12-08T05:11:05.307Z,99.90
2017-12-08T05:13:32.979Z,99.90
2017-12-08T05:16:01.424Z,99.90
2017-12-08T05:18:29.048Z,99.90
2017-12-08T05:20:56.772Z,99.90
2017-12-08T05:23:24.452Z,99.90
2017-12-08T05:25:52.851Z,99.90
2017-12-08T05:28:20.514Z,99.90
2017-12-08T05:30:48.225Z,99.90
2017-12-08T05:33:15.932Z,99.90
2017-12-08T05:35:43.595Z,99.90
2017-12-08T05:38:12.017Z,99.90
2017-12-08T05:40:39.678Z,99.90
2017-12-08T05:43:07.309Z,99.90
2017-12-08T05:45:35.009Z,99.90
2017-12-08T05:48:02.707Z,99.90
2017-12-08T05:50:30.405Z,99.90
2017-12-08T05:52:58.037Z,99.90
2017-12-08T05:55:25.898Z,99.90
2017-12-08T05:57:53.804Z,99.90
2017-12-08T06:00:21.592Z,99.90
2017-12-08T06:02:50.103Z,99.90
2017-12-08T06:05:17.728Z,99.90
2017-12-08T06:07:45.351Z,99.90
2017-12-08T06:10:12.990Z,99.90
2017-12-08T06:12:40.608Z,99.90
2017-12-08T06:15:09.071Z,99.90
2017-12-08T06:17:36.731Z,99.90
2017-12-08T06:20:04.383Z,99.90
2017-12-08T06:22:32.048Z,99.90
2017-12-08T06:24:59.672Z,99.90
2017-12-08T06:27:27.343Z,99.90
2017-12-08T06:29:54.994Z,99.90
2017-12-08T06:32:22.632Z,99.90
2017-12-08T06:34:50.263Z,99.90
2017-12-08T06:37:17.871Z,99.90
2017-12-08T06:39:45.527Z,99.90
2017-12-08T06:42:13.135Z,99.90
2017-12-08T06:44:40.749Z,99.90
2017-12-08T06:47:08.387Z,99.90
2017-12-08T06:49:36.019Z,99.90
2017-12-08T06:52:03.825Z,99.90
2017-12-08T06:54:31.495Z,99.90
2017-12-08T06:56:59.121Z,99.90
2017-12-08T06:59:27.564Z,99.90
2017-12-08T07:01:55.198Z,99.90
2017-12-08T07:04:22.856Z,99.90
2017-12-08T07:06:50.487Z,99.90
2017-12-08T07:09:18.156Z,99.90
2017-12-08T07:11:45.866Z,99.90
2017-12-08T07:14:13.510Z,99.90
2017-12-08T07:16:41.222Z,99.90
2017-12-08T07:19:09.626Z,99.90
2017-12-08T07:21:37.312Z,99.90
2017-12-08T07:24:04.996Z,99.90
2017-12-08T07:26:32.645Z,99.90
2017-12-08T07:29:00.320Z,99.90
2017-12-08T07:31:28.015Z,99.90
2017-12-08T07:33:55.664Z,99.90
2017-12-08T07:36:23.311Z,99.90
2017-12-08T07:38:51.708Z,99.90
2017-12-08T07:41:19.389Z,99.90
2017-12-08T07:43:47.007Z,99.90
2017-12-08T07:46:15.437Z,99.90
2017-12-08T07:48:43.108Z,99.90
2017-12-08T07:51:10.776Z,99.90
2017-12-08T07:53:38.453Z,99.90
2017-12-08T07:56:06.091Z,99.90
2017-12-08T07:58:33.696Z,99.90
2017-12-08T08:01:02.128Z,99.90
2017-12-08T08:03:29.732Z,99.90
2017-12-08T08:05:58.159Z,99.90
2017-12-08T08:08:26.692Z,99.90
2017-12-08T08:10:55.068Z,99.90
2017-12-08T08:13:23.667Z,99.90
2017-12-08T08:15:51.337Z,99.90
2017-12-08T08:18:19.163Z,99.90
2017-12-08T08:20:47.624Z,99.90
2017-12-08T08:23:15.319Z,99.90
2017-12-08T08:25:43.771Z,99.90
2017-12-08T08:28:11.439Z,99.90
2017-12-08T08:30:39.205Z,99.90
2017-12-08T08:33:07.644Z,99.90
2017-12-08T08:35:35.262Z,99.90
2017-12-08T08:38:02.975Z,99.90
2017-12-08T08:40:30.621Z,99.90
2017-12-08T08:42:58.346Z,99.90
2017-12-08T08:45:25.997Z,99.90
2017-12-08T08:47:54.423Z,99.90
2017-12-08T08:50:22.091Z,99.90
2017-12-08T08:52:49.707Z,99.90
2017-12-08T08:55:17.386Z,99.90
2017-12-08T08:57:45.015Z,99.90
2017-12-08T09:00:13.456Z,99.90
2017-12-08T09:02:41.123Z,99.90
2017-12-08T09:05:08.824Z,99.90
2017-12-08T09:07:37.273Z,99.90
2017-12-08T09:10:04.926Z,99.90
2017-12-08T09:12:32.639Z,99.90
2017-12-08T09:15:00.269Z,99.90
2017-12-08T09:17:28.756Z,99.90
2017-12-08T09:19:57.173Z,99.90
2017-12-08T09:22:24.797Z,99.90
2017-12-08T09:24:53.239Z,99.90
2017-12-08T09:27:20.910Z,99.90
2017-12-08T09:29:48.645Z,99.90
2017-12-08T09:32:16.322Z,99.90
2017-12-08T09:34:43.996Z,99.90
2017-12-08T09:37:11.644Z,99.90
2017-12-08T09:39:39.295Z,99.90
2017-12-08T09:42:06.999Z,99.90
2017-12-08T09:44:35.399Z,99.90
2017-12-08T09:47:03.037Z,99.90
2017-12-08T09:49:31.558Z,99.90
2017-12-08T09:51:59.228Z,99.90
2017-12-08T09:54:26.892Z,99.90
2017-12-08T09:56:54.548Z,99.90
2017-12-08T09:59:22.251Z,99.90
2017-12-08T10:01:50.659Z,99.90
2017-12-08T10:04:18.276Z,99.90
2017-12-08T10:06:45.977Z,99.90
2017-12-08T10:09:13.595Z,99.90
2017-12-08T10:11:41.283Z,99.90
2017-12-08T10:14:08.964Z,99.90
2017-12-08T10:16:36.616Z,99.90
2017-12-08T10:19:04.275Z,99.90
2017-12-08T10:21:31.960Z,99.90
2017-12-08T10:23:59.672Z,99.90
2017-12-08T10:26:28.074Z,99.90
2017-12-08T10:28:55.812Z,99.90
2017-12-08T10:31:24.209Z,99.90
2017-12-08T10:33:51.899Z,99.90
2017-12-08T10:36:19.599Z,99.90
2017-12-08T10:38:47.234Z,99.90
2017-12-08T10:41:15.029Z,99.90
2017-12-08T10:43:43.462Z,99.90
2017-12-08T10:46:11.102Z,99.90
2017-12-08T10:48:38.789Z,99.90
2017-12-08T10:51:06.469Z,99.90
2017-12-08T10:53:34.185Z,99.90
2017-12-08T10:56:01.830Z,99.90
2017-12-08T10:58:29.468Z,99.90
2017-12-08T11:00:57.910Z,99.90
2017-12-08T11:03:25.546Z,99.90
2017-12-08T11:05:53.216Z,99.90
2017-12-08T11:08:20.838Z,99.90
2017-12-08T11:10:48.467Z,99.90
2017-12-08T11:13:16.173Z,99.90
2017-12-08T11:15:43.893Z,99.90
2017-12-08T11:18:11.595Z,99.90
2017-12-08T11:20:39.228Z,99.90
2017-12-08T11:23:07.668Z,99.90
2017-12-08T11:25:35.346Z,99.90
2017-12-08T11:28:03.002Z,99.90
2017-12-08T11:30:30.676Z,99.90
2017-12-08T11:32:58.336Z,99.90
2017-12-08T11:35:25.993Z,99.90
2017-12-08T11:37:53.624Z,99.90
2017-12-08T11:40:21.298Z,99.90
2017-12-08T11:42:48.967Z,99.90
2017-12-08T11:45:16.587Z,99.90
2017-12-08T11:47:44.240Z,99.90
2017-12-08T11:50:11.855Z,99.90
2017-12-08T11:52:39.515Z,99.90
2017-12-08T11:55:07.352Z,99.90
2017-12-08T11:57:34.979Z,99.90
2017-12-08T12:00:02.670Z,99.90
2017-12-08T12:02:32.327Z,99.90
2017-12-08T12:05:00.766Z,99.90
2017-12-08T12:07:28.368Z,99.90
2017-12-08T12:09:56.735Z,99.90
2017-12-08T12:12:25.173Z,99.90
2017-12-08T12:14:52.787Z,99.90
2017-12-08T12:17:20.481Z,99.90
2017-12-08T12:19:48.104Z,99.90
2017-12-08T12:22:16.507Z,99.90
2017-12-08T12:24:44.195Z,99.90
2017-12-08T12:27:11.855Z,99.90
2017-12-08T12:29:39.560Z,99.90
2017-12-08T12:32:07.947Z,99.90
2017-12-08T12:34:35.595Z,99.90
2017-12-08T12:37:03.984Z,99.90
2017-12-08T12:39:31.632Z,99.90
2017-12-08T12:41:59.999Z,99.90
2017-12-08T12:44:28.438Z,99.90
2017-12-08T12:46:56.053Z,99.90
2017-12-08T12:49:24.483Z,99.90
2017-12-08T12:51:52.191Z,99.90
2017-12-08T12:54:20.810Z,99.90
2017-12-08T12:56:48.458Z,99.90
2017-12-08T12:59:16.843Z,99.90
2017-12-08T13:01:44.491Z,99.90
2017-12-08T13:04:12.088Z,99.90
2017-12-08T13:06:39.782Z,99.90
2017-12-08T13:09:08.162Z,99.90
2017-12-08T13:11:36.583Z,99.90
2017-12-08T13:14:04.233Z,99.90
2017-12-08T13:16:31.875Z,99.90
2017-12-08T13:18:59.515Z,99.90
2017-12-08T13:21:27.915Z,99.90
2017-12-08T13:23:55.627Z,99.90
2017-12-08T13:26:23.269Z,99.90
2017-12-08T13:28:50.899Z,99.90
2017-12-08T13:31:18.555Z,99.90
2017-12-08T13:33:46.174Z,99.90
2017-12-08T13:36:13.866Z,99.90
2017-12-08T13:38:42.246Z,99.90
2017-12-08T13:41:10.617Z,99.90
2017-12-08T13:43:39.022Z,99.90
2017-12-08T13:46:06.636Z,99.90
2017-12-08T13:48:34.422Z,99.90
2017-12-08T13:54:28.587Z,99.90
2017-12-08T13:56:56.715Z,99.90
2017-12-08T13:59:36.134Z,99.90
2017-12-08T14:02:03.860Z,99.90
2017-12-08T14:04:31.504Z,99.90
2017-12-08T14:06:59.195Z,99.90
2017-12-08T14:09:27.601Z,99.90
2017-12-08T14:11:55.389Z,99.90
2017-12-08T14:14:23.026Z,99.90
2017-12-08T14:16:50.726Z,99.90
2017-12-08T14:19:18.451Z,99.90
2017-12-08T14:21:46.124Z,99.90
2017-12-08T14:24:13.790Z,99.90
2017-12-08T14:26:41.410Z,99.90
2017-12-08T14:29:09.815Z,99.90
2017-12-08T14:31:37.480Z,99.90
2017-12-08T14:34:05.095Z,99.90
2017-12-08T14:36:33.517Z,99.90
2017-12-08T14:39:01.130Z,99.90
2017-12-08T14:41:29.573Z,99.90
2017-12-08T14:43:57.175Z,99.90
2017-12-08T14:46:24.854Z,99.90
2017-12-08T14:48:52.455Z,99.90
2017-12-08T14:51:20.128Z,99.90
2017-12-08T14:53:47.768Z,99.90
2017-12-08T14:56:15.413Z,99.90
2017-12-08T14:58:43.075Z,99.90
2017-12-08T15:01:10.682Z,99.90
2017-12-08T15:03:38.355Z,99.90
2017-12-08T15:06:06.726Z,99.90
2017-12-08T15:08:35.158Z,99.90
2017-12-08T15:11:02.895Z,99.90
2017-12-08T15:13:30.525Z,99.90
2017-12-08T15:15:58.973Z,99.90
2017-12-08T15:18:26.684Z,99.90
2017-12-08T15:20:54.322Z,99.90
2017-12-08T15:23:22.715Z,99.90
2017-12-08T15:25:51.168Z,99.90
2017-12-08T15:28:18.801Z,99.90
2017-12-08T15:30:46.420Z,99.90
2017-12-08T15:33:14.126Z,99.90
2017-12-08T15:35:41.812Z,99.90
2017-12-08T15:38:09.464Z,99.90
2017-12-08T15:40:37.150Z,99.90
2017-12-08T15:43:05.581Z,99.90
2017-12-08T15:45:33.233Z,99.90
2017-12-08T15:48:00.932Z,99.90
2017-12-08T15:50:28.604Z,99.90
2017-12-08T15:52:57.211Z,99.90
2017-12-08T15:55:24.888Z,99.90
2017-12-08T15:57:52.531Z,99.90
2017-12-08T16:00:20.268Z,99.90
2017-12-08T16:02:49.232Z,99.90
2017-12-08T16:05:17.838Z,99.90
2017-12-08T16:07:46.291Z,99.90
2017-12-08T16:10:14.023Z,99.90
2017-12-08T16:12:41.704Z,99.90
2017-12-08T16:15:09.463Z,99.90
2017-12-08T16:17:37.115Z,99.90
2017-12-08T16:20:04.777Z,99.90
2017-12-08T16:22:32.478Z,99.90
2017-12-08T16:25:00.106Z,99.90
2017-12-08T16:27:27.754Z,99.90
2017-12-08T16:29:55.414Z,99.90
2017-12-08T16:32:23.071Z,99.90
2017-12-08T16:34:50.732Z,99.90
2017-12-08T16:37:18.365Z,99.90
2017-12-08T16:39:46.103Z,99.90
2017-12-08T16:42:13.747Z,99.90
2017-12-08T16:44:41.583Z,99.90
2017-12-08T16:47:09.227Z,99.90
2017-12-08T16:49:37.783Z,99.90
2017-12-08T16:52:05.431Z,99.90
2017-12-08T16:54:33.828Z,99.90
2017-12-08T16:57:01.486Z,99.90
2017-12-08T16:59:29.113Z,99.90
2017-12-08T17:01:56.740Z,99.90
2017-12-08T17:04:24.403Z,99.90
2017-12-08T17:06:52.006Z,99.90
2017-12-08T17:09:20.413Z,99.90
2017-12-08T17:11:48.025Z,99.90
2017-12-08T17:14:15.672Z,99.90
2017-12-08T17:16:43.358Z,99.90
2017-12-08T17:19:11.912Z,99.90
2017-12-08T17:21:39.579Z,99.90
2017-12-08T17:24:07.275Z,99.90
2017-12-08T17:26:35.743Z,99.90
2017-12-08T17:29:04.176Z,99.90
2017-12-08T17:31:31.876Z,99.90
2017-12-08T17:34:00.326Z,99.90
2017-12-08T17:36:28.146Z,99.90
2017-12-08T17:38:55.767Z,99.90
2017-12-08T17:41:23.448Z,99.90
2017-12-08T17:43:53.014Z,99.90
2017-12-08T17:46:20.704Z,99.90
2017-12-08T17:48:49.123Z,99.90
2017-12-08T17:51:16.735Z,99.90
2017-12-08T17:53:44.411Z,99.90
2017-12-08T17:56:12.794Z,99.90
2017-12-08T17:58:40.419Z,99.90
2017-12-08T18:01:08.079Z,99.90
2017-12-08T18:03:35.732Z,99.90
2017-12-08T18:06:03.438Z,99.90
2017-12-08T18:08:31.069Z,99.90
2017-12-08T18:10:58.696Z,99.90
2017-12-08T18:13:26.383Z,99.90
2017-12-08T18:15:54.059Z,99.90
2017-12-08T18:18:21.793Z,99.90
2017-12-08T18:20:49.475Z,99.90
2017-12-08T18:23:17.143Z,99.90
2017-12-08T18:25:44.819Z,99.90
2017-12-08T18:28:13.208Z,99.90
2017-12-08T18:30:40.947Z,99.90
2017-12-08T18:33:09.356Z,99.90
2017-12-08T18:35:37.047Z,99.90
2017-12-08T18:38:04.704Z,99.90
2017-12-08T18:40:32.383Z,99.90
2017-12-08T18:43:00.088Z,99.90
2017-12-08T18:45:28.208Z,99.90
2017-12-08T18:47:55.892Z,99.90
2017-12-08T18:50:23.555Z,99.90
2017-12-08T18:52:51.946Z,99.90
2017-12-08T18:55:20.388Z,99.90
2017-12-08T18:57:48.079Z,99.90
2017-12-08T19:00:16.575Z,99.90
2017-12-08T19:02:44.259Z,99.90
2017-12-08T19:05:11.965Z,99.90
2017-12-08T19:07:39.700Z,99.90
2017-12-08T19:10:07.524Z,99.90
2017-12-08T19:12:35.179Z,99.90
2017-12-08T19:15:03.647Z,99.90
2017-12-08T19:17:32.096Z,99.90
2017-12-08T19:19:59.828Z,99.90
2017-12-08T19:22:27.529Z,99.90
2017-12-08T19:24:55.268Z,99.90
2017-12-08T19:27:22.984Z,99.90
2017-12-08T19:29:51.428Z,99.90
2017-12-08T19:32:19.235Z,99.90
2017-12-08T19:34:46.915Z,99.90
2017-12-08T19:37:14.559Z,99.90
2017-12-08T19:39:42.244Z,99.90
2017-12-08T19:42:09.901Z,99.90
2017-12-08T19:44:37.566Z,99.90
2017-12-08T19:47:05.209Z,99.90
2017-12-08T19:49:33.508Z,99.90
2017-12-08T19:52:01.222Z,99.90
2017-12-08T19:54:29.664Z,99.90
2017-12-08T19:56:57.318Z,99.90
2017-12-08T19:59:24.963Z,99.90
2017-12-08T20:01:52.659Z,99.90
2017-12-08T20:04:20.277Z,99.90
2017-12-08T20:06:47.914Z,99.90
2017-12-08T20:09:15.579Z,99.90
2017-12-08T20:11:43.192Z,99.90
2017-12-08T20:14:10.901Z,99.90
2017-12-08T20:16:38.534Z,99.90
2017-12-08T20:19:06.934Z,99.90
2017-12-08T20:21:34.648Z,99.90
2017-12-08T20:24:02.302Z,99.90
2017-12-08T20:26:30.079Z,99.90
2017-12-08T20:28:57.694Z,99.90
2017-12-08T20:31:25.308Z,99.90
2017-12-08T20:33:52.979Z,99.90
2017-12-08T20:36:21.399Z,99.90
2017-12-08T20:38:49.067Z,99.90
2017-12-08T20:41:16.679Z,99.90
2017-12-08T20:43:44.295Z,99.90
2017-12-08T20:46:11.938Z,99.90
2017-12-08T20:48:39.553Z,99.90
2017-12-08T20:51:08.050Z,99.90
2017-12-08T20:53:35.721Z,99.90
2017-12-08T20:56:03.446Z,99.90
2017-12-08T20:58:31.125Z,99.90
2017-12-08T21:00:58.987Z,99.90
2017-12-08T21:03:26.784Z,99.90
2017-12-08T21:05:54.593Z,99.90
2017-12-08T21:08:23.315Z,99.90
2017-12-08T21:10:51.411Z,99.90
2017-12-08T21:13:19.445Z,99.90
2017-12-08T21:15:47.438Z,99.90
2017-12-08T21:18:15.074Z,99.90
2017-12-08T21:20:42.883Z,99.90
2017-12-08T21:23:11.717Z,99.90
2017-12-08T21:25:39.680Z,99.90
2017-12-08T21:28:09.133Z,99.90
2017-12-08T21:30:36.835Z,99.90
2017-12-08T21:33:05.221Z,99.90
2017-12-08T21:35:32.984Z,99.90
2017-12-08T21:38:01.372Z,99.90
2017-12-08T21:40:29.146Z,99.90
2017-12-08T21:42:56.806Z,99.90
2017-12-08T21:45:24.616Z,99.90
2017-12-08T21:47:52.328Z,99.90
2017-12-08T21:50:20.231Z,99.90
2017-12-08T21:52:48.338Z,99.90
2017-12-08T21:55:16.819Z,99.90
2017-12-08T21:57:45.204Z,99.90
2017-12-08T22:00:13.054Z,99.90
2017-12-08T22:02:41.813Z,99.90
2017-12-08T22:05:09.454Z,99.90
2017-12-08T22:07:37.325Z,99.90
2017-12-08T22:10:05.043Z,99.90
2017-12-08T22:12:32.761Z,99.90
2017-12-08T22:15:00.435Z,99.90
2017-12-08T22:17:28.055Z,99.90
2017-12-08T22:19:55.722Z,99.90
2017-12-08T22:22:23.355Z,99.90
2017-12-08T22:24:51.060Z,99.90
2017-12-08T22:27:18.704Z,99.90
2017-12-08T22:29:46.356Z,99.90
2017-12-08T22:32:14.065Z,99.90
2017-12-08T22:34:42.501Z,99.90
2017-12-08T22:37:10.192Z,99.90
2017-12-08T22:39:37.840Z,99.90
2017-12-08T22:42:05.495Z,99.90
2017-12-08T22:44:33.171Z,99.90
2017-12-08T22:47:00.798Z,99.90
2017-12-08T22:49:28.467Z,99.90
2017-12-08T22:51:56.110Z,99.90
2017-12-08T22:54:23.754Z,99.90
2017-12-08T22:56:51.417Z,99.90
2017-12-08T22:59:19.039Z,99.90
2017-12-08T23:01:47.533Z,99.90
2017-12-08T23:04:15.961Z,99.90
2017-12-08T23:06:43.587Z,99.90
2017-12-08T23:09:11.251Z,99.90
2017-12-08T23:11:38.981Z,99.90
2017-12-08T23:14:07.443Z,99.90
2017-12-08T23:16:35.064Z,99.90
2017-12-08T23:19:02.749Z,99.90
2017-12-08T23:21:30.374Z,99.90
2017-12-08T23:23:58.007Z,99.90
2017-12-08T23:26:26.406Z,99.90
2017-12-08T23:28:54.031Z,99.90
2017-12-08T23:31:22.439Z,99.90
2017-12-08T23:33:50.057Z,99.90
2017-12-08T23:36:17.743Z,99.90
2017-12-08T23:38:46.128Z,99.90
2017-12-08T23:41:13.735Z,99.90
2017-12-08T23:43:41.377Z,99.90
2017-12-08T23:46:08.994Z,99.90
2017-12-08T23:48:37.423Z,99.90
2017-12-08T23:51:05.033Z,99.90
2017-12-08T23:53:33.430Z,99.90
2017-12-08T23:56:01.067Z,99.90
2017-12-08T23:58:29.493Z,99.90
